Date,TemperatureHighF,TemperatureAvgF,TemperatureLowF,DewpointHighF,DewpointAvgF,DewpointLowF,HumidityHigh,HumidityAvg,HumidityLow,PressureMaxIn,PressureMinIn,WindSpeedMaxMPH,WindSpeedAvgMPH,GustSpeedMaxMPH,PrecipitationSumIn
2013-1-1,54,42,23,27,23,17,86,49,27,0.00,40.00,10,5,15,0.00
2013-1-2,60,47,29,23,19,15,69,36,17,0.00,40.00,10,6,16,0.00
2013-1-3,63,48,31,22,16,8,62,32,11,0.00,40.00,12,7,20,0.00
2013-1-4,61,46,22,22,16,12,64,34,17,0.00,40.00,8,4,12,0.00
2013-1-5,52,33,19,21,18,14,85,59,26,0.00,40.00,6,3,10,0.00
2013-1-17,69,59,42,23,20,18,40,23,15,0.00,40.00,11,7,18,0.00
2013-1-18,71,55,33,24,22,19,59,30,15,0.00,40.00,10,7,17,0.00
2013-1-19,71,55,31,23,21,19,69,30,15,0.00,40.00,9,6,15,0.00
2013-1-20,72,54,33,23,20,15,55,28,14,0.00,40.00,10,6,15,0.00
2013-1-21,74,55,35,21,17,10,50,25,11,0.00,40.00,10,7,15,0.00
2013-1-22,74,54,31,24,19,11,58,28,12,0.00,40.00,10,6,15,0.00
2013-1-23,72,59,39,30,26,22,57,31,17,0.00,40.00,8,4,13,0.00
2013-1-24,74,62,54,50,40,31,72,47,28,0.00,40.00,7,4,12,0.00
2013-1-25,70,61,57,57,52,48,100,73,46,0.00,40.00,8,4,12,0.42
2013-1-26,65,59,56,60,58,56,100,96,80,0.00,40.00,8,4,13,0.74
2013-1-27,70,61,53,58,52,35,99,74,51,0.00,40.00,11,8,18,0.01
2013-1-28,60,50,39,39,34,27,84,56,29,0.00,40.00,12,5,28,0.01
2013-1-29,65,50,34,36,31,24,86,52,22,0.00,40.00,6,4,10,0.01
2013-1-30,67,52,35,40,36,32,95,60,27,0.00,40.00,6,4,11,0.00
2013-1-31,70,58,36,42,40,35,95,54,32,0.00,40.00,9,5,15,0.00